EST,Max TemperatureF,Mean TemperatureF,Min TemperatureF,Max Dew PointF,MeanDew PointF,Min DewpointF,Max Humidity, Mean Humidity, Min Humidity, Max Sea Level PressureIn, Mean Sea Level PressureIn, Min Sea Level PressureIn, Max VisibilityMiles, Mean VisibilityMiles, Min VisibilityMiles, Max Wind SpeedMPH, Mean Wind SpeedMPH, Max Gust SpeedMPH,PrecipitationIn, CloudCover, Events, WindDirDegrees
2012-11-1,51,46,40,,,,,,,,,,,,,,,,0.00,,,
2012-11-2,52,47,42,,,,,,,,,,,,,20,12,29,T,,,
2012-11-3,49,45,41,,,,,,,,,,,,,21,12,28,0.00,,,
2012-11-4,47,41,34,,,,,,,,,,,,,15,8,21,0.00,,,
2012-11-5,46,39,31,,,,,,,,,,,,,20,8,24,0.00,,,
2012-11-6,45,36,27,23,22,21,56,48,40,30.22,30.12,30.04,10,10,10,12,6,14,0.00,2,,69
2012-11-7,40,37,33,32,29,18,96,72,47,30.00,29.86,29.79,10,4,1,22,14,31,0.35,7,Snow,21
2012-11-8,48,41,33,30,24,18,89,60,31,29.95,29.82,29.76,10,10,4,20,10,30,T,4,Snow,356
2012-11-9,54,44,34,30,26,23,76,54,32,30.21,30.09,29.96,10,10,10,18,7,25,0.00,0,,336
2012-11-10,55,44,33,39,35,29,89,70,50,30.40,30.31,30.22,10,9,7,7,1,8,T,3,,301
2012-11-11,67,51,35,47,42,35,100,73,45,30.49,30.44,30.40,10,6,0,10,3,14,0.00,1,Fog,197
2012-11-12,70,57,43,57,49,42,100,79,57,30.46,30.36,30.15,10,5,0,16,5,22,0.00,2,Fog,195
2012-11-13,61,49,36,58,40,26,92,75,57,30.44,30.29,30.11,10,9,4,22,9,30,0.22,6,Rain,347
2012-11-14,48,40,32,29,25,22,70,56,42,30.51,30.46,30.43,10,10,10,16,7,23,0.00,0,,34
2012-11-15,47,40,33,29,26,23,75,62,49,30.42,30.36,30.29,10,10,10,12,5,15,0.00,0,,39
2012-11-16,49,40,30,28,26,24,78,60,42,30.43,30.33,30.28,10,10,10,8,5,13,0.00,0,,6
2012-11-17,53,42,30,31,28,24,82,62,41,30.61,30.55,30.44,10,10,9,14,5,17,0.00,0,,47
2012-11-18,50,42,34,37,32,28,76,65,54,30.64,30.59,30.53,10,10,9,13,7,16,0.00,2,,53
2012-11-19,51,44,36,38,35,31,82,72,61,30.53,30.38,30.23,10,10,10,13,7,17,0.00,4,,52
2012-11-20,51,43,35,37,32,29,85,64,42,30.21,30.15,30.10,10,10,10,9,4,12,0.00,0,,33
2012-11-21,54,43,32,31,28,24,82,59,35,30.21,30.17,30.12,10,10,10,14,6,18,0.00,0,,18
2012-11-22,57,44,31,39,33,25,82,65,47,30.26,30.20,30.13,10,10,6,9,5,12,0.00,0,,20
2012-11-23,57,43,29,42,35,28,100,74,47,30.11,29.92,29.69,10,6,0,13,3,16,T,3,Fog,234
2012-11-24,50,43,36,32,22,19,66,53,39,29.88,29.80,29.70,10,10,10,24,13,33,0.00,5,,318
2012-11-25,40,34,28,21,20,17,69,58,47,29.97,29.93,29.88,10,10,9,17,7,23,0.00,3,,290
2012-11-26,49,37,25,25,22,19,81,58,34,30.24,30.11,29.97,10,10,8,13,4,20,0.00,0,,294
2012-11-27,37,34,31,34,31,24,96,80,64,30.27,30.23,30.18,10,6,1,10,5,14,0.60,8,Rain-Snow,32
2012-11-28,41,35,29,31,26,21,92,70,48,30.30,30.23,30.18,10,10,7,16,6,25,0.00,3,,320
2012-11-29,43,36,28,25,22,20,69,57,45,30.39,30.33,30.29,10,9,7,15,5,23,0.00,0,,280
2012-11-30,47,36,25,38,30,22,92,71,49,30.40,30.36,30.31,10,8,5,14,4,17,0.00,4,,71